createdAt,value
2018-02-20T00:00:56.807Z,2.45
2018-02-20T00:01:56.724Z,2.47
2018-02-20T00:02:56.618Z,2.44
2018-02-20T00:03:56.543Z,2.45
2018-02-20T00:04:56.468Z,2.45
2018-02-20T00:05:56.397Z,2.38
2018-02-20T00:06:56.278Z,2.43
2018-02-20T00:07:56.214Z,2.45
2018-02-20T00:08:56.126Z,2.40
2018-02-20T00:09:56.059Z,2.45
2018-02-20T00:10:55.962Z,2.36
2018-02-20T00:11:56.025Z,2.32
2018-02-20T00:12:55.797Z,2.37
2018-02-20T00:13:55.719Z,2.36
2018-02-20T00:14:55.631Z,2.40
2018-02-20T00:15:55.567Z,2.40
2018-02-20T00:16:55.451Z,2.45
2018-02-20T00:17:55.385Z,2.50
2018-02-20T00:18:55.291Z,2.50
2018-02-20T00:19:55.288Z,2.51
2018-02-20T00:20:55.124Z,2.56
2018-02-20T00:21:55.054Z,2.59
2018-02-20T00:22:54.957Z,2.51
2018-02-20T00:23:54.886Z,2.58
2018-02-20T00:24:54.796Z,2.56
2018-02-20T00:25:54.745Z,2.50
2018-02-20T00:26:54.631Z,2.59
2018-02-20T00:27:54.548Z,2.56
2018-02-20T00:28:54.475Z,2.59
2018-02-20T00:29:54.384Z,2.61
2018-02-20T00:30:54.313Z,2.48
2018-02-20T00:31:54.228Z,2.45
2018-02-20T00:32:54.124Z,2.47
2018-02-20T00:33:54.058Z,2.30
2018-02-20T00:34:53.961Z,2.27
2018-02-20T00:35:53.905Z,2.37
2018-02-20T00:36:53.815Z,2.33
2018-02-20T00:37:53.721Z,2.37
2018-02-20T00:38:53.625Z,2.33
2018-02-20T00:39:53.558Z,2.26
2018-02-20T00:40:53.482Z,2.29
2018-02-20T00:41:53.470Z,2.25
2018-02-20T00:42:53.289Z,2.26
2018-02-20T00:43:53.236Z,2.25
2018-02-20T00:44:53.129Z,2.26
2018-02-20T00:45:53.062Z,2.26
2018-02-20T00:46:52.978Z,2.25
2018-02-20T00:47:52.899Z,2.12
2018-02-20T00:48:52.804Z,2.09
2018-02-20T00:49:52.728Z,2.19
2018-02-20T00:50:52.632Z,2.15
2018-02-20T00:51:52.582Z,2.19
2018-02-20T00:52:52.471Z,2.14
2018-02-20T00:53:52.393Z,2.04
2018-02-20T00:54:52.308Z,2.08
2018-02-20T00:55:52.226Z,2.07
2018-02-20T00:56:52.167Z,2.02
2018-02-20T00:57:52.068Z,1.93
2018-02-20T00:58:51.976Z,1.86
2018-02-20T00:59:51.887Z,1.88
2018-02-20T01:00:51.797Z,1.83
2018-02-20T01:01:51.797Z,1.89
2018-02-20T01:02:51.630Z,1.86
2018-02-20T01:03:51.552Z,1.83
2018-02-20T01:04:51.464Z,1.83
2018-02-20T01:05:51.390Z,1.77
2018-02-20T01:06:51.326Z,1.71
2018-02-20T01:07:51.221Z,1.64
2018-02-20T01:08:51.130Z,1.63
2018-02-20T01:09:51.067Z,1.64
2018-02-20T01:10:50.962Z,1.63
2018-02-20T01:11:50.905Z,1.65
2018-02-20T01:12:50.794Z,1.70
2018-02-20T01:13:50.752Z,1.72
2018-02-20T01:14:50.639Z,1.75
2018-02-20T01:15:50.550Z,1.67
2018-02-20T01:16:50.471Z,1.77
2018-02-20T01:17:50.412Z,1.74
2018-02-20T01:18:50.327Z,1.61
2018-02-20T01:19:50.218Z,1.65
2018-02-20T01:20:50.151Z,1.52
2018-02-20T01:21:50.054Z,1.50
2018-02-20T01:22:50.004Z,1.53
2018-02-20T01:23:49.894Z,1.72
2018-02-20T01:24:49.790Z,1.64
2018-02-20T01:25:49.738Z,1.71
2018-02-20T01:26:49.622Z,1.72
2018-02-20T01:27:49.573Z,1.74
2018-02-20T01:28:49.462Z,1.79
2018-02-20T01:29:49.399Z,1.75
2018-02-20T01:30:49.302Z,1.63
2018-02-20T01:31:49.224Z,1.52
2018-02-20T01:32:49.150Z,1.53
2018-02-20T01:33:49.051Z,1.47
2018-02-20T01:34:48.961Z,1.49
2018-02-20T01:35:48.887Z,1.50
2018-02-20T01:36:48.792Z,1.64
2018-02-20T01:37:48.737Z,1.61
2018-02-20T01:38:48.641Z,1.64
2018-02-20T01:39:48.549Z,1.72
2018-02-20T01:40:48.452Z,1.77
2018-02-20T01:41:48.385Z,1.70
2018-02-20T01:42:48.288Z,1.79
2018-02-20T01:43:48.235Z,1.74
2018-02-20T01:44:48.114Z,1.68
2018-02-20T01:45:48.052Z,1.72
2018-02-20T01:46:47.954Z,1.74
2018-02-20T01:47:47.881Z,1.57
2018-02-20T01:48:47.818Z,1.49
2018-02-20T01:49:47.719Z,1.44
2018-02-20T01:50:47.631Z,1.29
2018-02-20T01:51:47.611Z,1.26
2018-02-20T01:52:47.466Z,1.10
2018-02-20T01:53:47.410Z,1.17
2018-02-20T01:54:47.310Z,1.04
2018-02-20T01:55:47.220Z,1.06
2018-02-20T01:56:47.122Z,1.00
2018-02-20T01:57:47.049Z,0.90
2018-02-20T01:58:46.974Z,0.81
2018-02-20T01:59:46.881Z,0.81
2018-02-20T02:00:46.783Z,0.81
2018-02-20T02:01:46.710Z,0.80
2018-02-20T02:02:46.621Z,0.77
2018-02-20T02:03:46.564Z,0.74
2018-02-20T02:04:46.458Z,0.68
2018-02-20T02:05:46.396Z,0.67
2018-02-20T02:06:46.278Z,0.68
2018-02-20T02:07:46.206Z,0.71
2018-02-20T02:08:46.117Z,0.63
2018-02-20T02:09:46.058Z,0.75
2018-02-20T02:10:45.950Z,0.57
2018-02-20T02:11:45.877Z,0.60
2018-02-20T02:12:45.780Z,0.63
2018-02-20T02:13:45.708Z,0.59
2018-02-20T02:14:45.642Z,0.63
2018-02-20T02:15:45.554Z,0.62
2018-02-20T02:16:45.465Z,0.72
2018-02-20T02:17:45.382Z,0.63
2018-02-20T02:18:45.277Z,0.57
2018-02-20T02:19:45.224Z,0.62
2018-02-20T02:20:45.113Z,0.63
2018-02-20T02:21:45.162Z,0.62
2018-02-20T02:22:44.948Z,0.64
2018-02-20T02:23:44.878Z,0.68
2018-02-20T02:24:44.798Z,0.64
2018-02-20T02:25:44.723Z,0.48
2018-02-20T02:26:44.611Z,0.44
2018-02-20T02:27:44.540Z,0.62
2018-02-20T02:28:44.450Z,0.62
2018-02-20T02:29:44.371Z,0.43
2018-02-20T02:30:44.289Z,0.44
2018-02-20T02:31:44.210Z,0.41
2018-02-20T02:32:44.117Z,0.44
2018-02-20T02:33:44.034Z,0.43
2018-02-20T02:34:43.935Z,0.38
2018-02-20T02:35:43.883Z,0.52
2018-02-20T02:36:43.774Z,0.57
2018-02-20T02:37:43.701Z,0.72
2018-02-20T02:38:43.603Z,0.81
2018-02-20T02:39:43.529Z,0.89
2018-02-20T02:40:43.460Z,0.99
2018-02-20T02:41:43.380Z,1.06
2018-02-20T02:42:43.275Z,1.13
2018-02-20T02:43:43.201Z,1.14
2018-02-20T02:44:43.098Z,1.04
2018-02-20T02:45:43.044Z,0.93
2018-02-20T02:46:42.934Z,0.89
2018-02-20T02:47:42.880Z,0.71
2018-02-20T02:48:42.762Z,0.64
2018-02-20T02:49:42.692Z,0.63
2018-02-20T02:50:42.616Z,0.64
2018-02-20T02:51:42.595Z,0.62
2018-02-20T02:52:42.441Z,0.70
2018-02-20T02:53:42.355Z,0.78
2018-02-20T02:54:42.267Z,0.75
2018-02-20T02:55:42.184Z,0.75
2018-02-20T02:56:42.104Z,0.71
2018-02-20T02:57:42.026Z,0.71
2018-02-20T02:58:41.924Z,0.71
2018-02-20T02:59:41.848Z,0.80
2018-02-20T03:00:41.764Z,0.72
2018-02-20T03:01:41.714Z,0.74
2018-02-20T03:02:41.590Z,0.72
2018-02-20T03:03:41.520Z,0.72
2018-02-20T03:04:41.423Z,0.71
2018-02-20T03:05:41.350Z,0.86
2018-02-20T03:06:41.271Z,0.72
2018-02-20T03:07:41.204Z,0.80
2018-02-20T03:08:41.088Z,0.82
2018-02-20T03:09:41.016Z,0.78
2018-02-20T03:10:40.924Z,0.81
2018-02-20T03:11:40.906Z,0.74
2018-02-20T03:12:40.783Z,0.64
2018-02-20T03:13:40.675Z,0.71
2018-02-20T03:14:40.682Z,0.71
2018-02-20T03:15:40.514Z,0.68
2018-02-20T03:16:40.427Z,0.72
2018-02-20T03:17:40.344Z,0.86
2018-02-20T03:18:40.264Z,0.89
2018-02-20T03:19:40.176Z,0.88
2018-02-20T03:20:40.081Z,0.71
2018-02-20T03:21:40.013Z,0.71
2018-02-20T03:22:39.931Z,0.64
2018-02-20T03:23:39.840Z,0.64
2018-02-20T03:24:39.750Z,0.59
2018-02-20T03:25:39.687Z,0.62
2018-02-20T03:26:39.578Z,0.62
2018-02-20T03:27:39.526Z,0.63
2018-02-20T03:28:39.415Z,0.67
2018-02-20T03:29:39.354Z,0.51
2018-02-20T03:30:39.245Z,0.57
2018-02-20T03:31:39.205Z,0.59
2018-02-20T03:32:39.098Z,0.63
2018-02-20T03:33:39.002Z,0.70
2018-02-20T03:34:38.905Z,0.62
2018-02-20T03:35:38.827Z,0.64
2018-02-20T03:36:38.736Z,0.63
2018-02-20T03:37:38.684Z,0.60
2018-02-20T03:38:38.566Z,0.57
2018-02-20T03:39:38.505Z,0.63
2018-02-20T03:40:38.410Z,0.64
2018-02-20T03:41:38.320Z,0.60
2018-02-20T03:42:38.259Z,0.70
2018-02-20T03:43:38.165Z,0.74
2018-02-20T03:44:38.688Z,0.56
2018-02-20T03:45:38.006Z,0.53
2018-02-20T03:46:37.903Z,0.70
2018-02-20T03:47:37.827Z,0.68
2018-02-20T03:48:37.751Z,0.59
2018-02-20T03:49:37.658Z,0.64
2018-02-20T03:50:37.583Z,0.59
2018-02-20T03:51:37.492Z,0.63
2018-02-20T03:52:37.401Z,0.59
2018-02-20T03:53:37.342Z,0.45
2018-02-20T03:54:37.235Z,0.48
2018-02-20T03:55:37.145Z,0.34
2018-02-20T03:56:37.073Z,0.35
2018-02-20T03:57:36.992Z,0.43
2018-02-20T03:58:36.903Z,0.48
2018-02-20T03:59:36.820Z,0.44
2018-02-20T04:00:36.735Z,0.43
2018-02-20T04:01:36.662Z,0.52
2018-02-20T04:02:36.555Z,0.71
2018-02-20T04:03:36.502Z,0.67
2018-02-20T04:04:36.502Z,0.62
2018-02-20T04:05:36.312Z,0.59
2018-02-20T04:06:36.220Z,0.60
2018-02-20T04:07:36.135Z,0.68
2018-02-20T04:08:36.044Z,0.75
2018-02-20T04:09:36.018Z,0.86
2018-02-20T04:10:35.881Z,1.04
2018-02-20T04:11:35.812Z,1.02
2018-02-20T04:12:35.714Z,1.04
2018-02-20T04:13:35.640Z,1.07
2018-02-20T04:14:35.569Z,1.16
2018-02-20T04:15:35.485Z,1.06
2018-02-20T04:16:35.379Z,1.10
2018-02-20T04:17:35.313Z,1.06
2018-02-20T04:18:35.220Z,1.00
2018-02-20T04:19:35.159Z,0.93
2018-02-20T04:20:35.041Z,1.02
2018-02-20T04:21:34.974Z,0.93
2018-02-20T04:22:34.884Z,0.96
2018-02-20T04:23:34.802Z,0.93
2018-02-20T04:24:34.732Z,0.90
2018-02-20T04:25:34.631Z,0.77
2018-02-20T04:26:34.544Z,0.71
2018-02-20T04:27:34.466Z,0.63
2018-02-20T04:28:34.383Z,0.59
2018-02-20T04:29:34.327Z,0.67
2018-02-20T04:30:34.252Z,0.60
2018-02-20T04:31:34.127Z,0.48
2018-02-20T04:32:34.038Z,0.45
2018-02-20T04:33:33.972Z,0.56
2018-02-20T04:34:33.888Z,0.48
2018-02-20T04:35:33.819Z,0.30
2018-02-20T04:36:33.710Z,0.30
2018-02-20T04:37:33.645Z,0.35
2018-02-20T04:38:33.531Z,0.51
2018-02-20T04:39:33.459Z,0.51
2018-02-20T04:40:33.386Z,0.33
2018-02-20T04:41:33.292Z,0.40
2018-02-20T04:42:33.195Z,0.38
2018-02-20T04:43:33.123Z,0.53
2018-02-20T04:44:33.031Z,0.48
2018-02-20T04:45:32.984Z,0.52
2018-02-20T04:46:32.864Z,0.59
2018-02-20T04:47:32.793Z,0.40
2018-02-20T04:48:32.699Z,0.35
2018-02-20T04:49:32.623Z,0.28
2018-02-20T04:50:32.540Z,0.17
2018-02-20T04:51:32.497Z,0.17
2018-02-20T04:52:32.357Z,0.12
2018-02-20T04:53:32.288Z,0.13
2018-02-20T04:54:32.240Z,-0.03
2018-02-20T04:55:32.123Z,-0.02
2018-02-20T04:56:32.041Z,-0.01
2018-02-20T04:57:31.948Z,-0.08
2018-02-20T04:58:31.864Z,-0.13
2018-02-20T04:59:31.783Z,-0.17
2018-02-20T05:00:31.692Z,-0.14
2018-02-20T05:01:31.644Z,-0.16
2018-02-20T05:02:31.517Z,-0.26
2018-02-20T05:03:31.450Z,-0.23
2018-02-20T05:04:31.456Z,0.10
2018-02-20T05:05:31.282Z,0.49
2018-02-20T05:06:31.195Z,0.60
2018-02-20T05:07:31.207Z,0.59
2018-02-20T05:08:31.011Z,0.67
2018-02-20T05:09:30.949Z,0.72
2018-02-20T05:10:30.846Z,0.77
2018-02-20T05:11:30.794Z,0.75
2018-02-20T05:12:30.704Z,0.75
2018-02-20T05:13:30.610Z,0.72
2018-02-20T05:14:30.509Z,0.80
2018-02-20T05:15:30.437Z,0.82
2018-02-20T05:16:30.358Z,0.57
2018-02-20T05:17:30.280Z,0.53
2018-02-20T05:18:30.170Z,0.35
2018-02-20T05:19:30.092Z,0.17
2018-02-20T05:20:29.999Z,0.04
2018-02-20T05:21:29.925Z,0.04
2018-02-20T05:22:29.953Z,-0.02
2018-02-20T05:23:29.808Z,-0.06
2018-02-20T05:24:29.667Z,-0.14
2018-02-20T05:25:29.616Z,-0.21
2018-02-20T05:26:29.498Z,-0.31
2018-02-20T05:27:29.580Z,-0.27
2018-02-20T05:28:29.363Z,-0.26
2018-02-20T05:29:29.336Z,-0.27
2018-02-20T05:30:29.163Z,-0.31
2018-02-20T05:31:29.157Z,-0.27
2018-02-20T05:32:29.019Z,-0.17
2018-02-20T05:33:28.955Z,-0.01
2018-02-20T05:34:28.822Z,-0.14
2018-02-20T05:35:28.773Z,-0.13
2018-02-20T05:36:28.654Z,-0.20
2018-02-20T05:37:28.699Z,-0.16
2018-02-20T05:38:28.476Z,-0.26
2018-02-20T05:39:28.483Z,-0.14
2018-02-20T05:40:28.315Z,-0.20
2018-02-20T05:41:28.293Z,-0.20
2018-02-20T05:42:28.164Z,-0.08
2018-02-20T05:43:28.131Z,0.19
2018-02-20T05:44:28.004Z,0.26
2018-02-20T05:45:27.898Z,0.23
2018-02-20T05:46:27.806Z,0.26
2018-02-20T05:47:27.728Z,0.28
2018-02-20T05:48:27.665Z,0.30
2018-02-20T05:49:27.564Z,0.25
2018-02-20T05:50:27.478Z,0.07
2018-02-20T05:51:27.439Z,-0.01
2018-02-20T05:52:27.299Z,-0.01
2018-02-20T05:53:27.283Z,-0.12
2018-02-20T05:54:27.149Z,-0.13
2018-02-20T05:55:27.064Z,-0.14
2018-02-20T05:56:26.967Z,-0.02
2018-02-20T05:57:26.903Z,-0.12
2018-02-20T05:58:26.792Z,-0.03
2018-02-20T05:59:26.757Z,-0.03
2018-02-20T06:00:26.631Z,-0.05
2018-02-20T06:01:26.554Z,-0.13
2018-02-20T06:02:26.554Z,-0.21
2018-02-20T06:03:26.389Z,-0.26
2018-02-20T06:04:26.301Z,-0.21
2018-02-20T06:05:26.214Z,-0.27
2018-02-20T06:06:26.127Z,-0.14
2018-02-20T06:07:26.053Z,-0.09
2018-02-20T06:08:25.958Z,-0.13
2018-02-20T06:09:26.902Z,-0.17
2018-02-20T06:10:25.785Z,-0.20
2018-02-20T06:11:25.731Z,-0.21
2018-02-20T06:12:25.622Z,-0.30
2018-02-20T06:13:25.544Z,-0.31
2018-02-20T06:14:25.501Z,-0.23
2018-02-20T06:15:25.379Z,-0.32
2018-02-20T06:16:25.289Z,-0.34
2018-02-20T06:17:25.196Z,-0.30
2018-02-20T06:18:25.117Z,-0.30
2018-02-20T06:19:25.070Z,-0.26
2018-02-20T06:20:24.950Z,-0.24
2018-02-20T06:21:24.876Z,-0.23
2018-02-20T06:22:24.800Z,-0.24
2018-02-20T06:23:24.702Z,-0.27
2018-02-20T06:24:24.605Z,-0.21
2018-02-20T06:25:24.545Z,-0.21
2018-02-20T06:26:24.434Z,-0.13
2018-02-20T06:27:24.386Z,-0.23
2018-02-20T06:28:24.266Z,-0.23
2018-02-20T06:29:24.196Z,-0.23
2018-02-20T06:30:24.108Z,-0.24
2018-02-20T06:31:24.022Z,-0.30
2018-02-20T06:32:23.922Z,-0.31
2018-02-20T06:33:23.852Z,-0.35
2018-02-20T06:34:23.751Z,-0.26
2018-02-20T06:35:23.707Z,-0.31
2018-02-20T06:36:23.601Z,-0.37
2018-02-20T06:37:23.512Z,-0.37
2018-02-20T06:38:23.420Z,-0.38
2018-02-20T06:39:23.356Z,-0.41
2018-02-20T06:40:23.263Z,-0.34
2018-02-20T06:41:23.198Z,-0.49
2018-02-20T06:42:23.084Z,-0.49
2018-02-20T06:43:23.007Z,-0.44
2018-02-20T06:44:23.017Z,-0.35
2018-02-20T06:45:22.860Z,-0.45
2018-02-20T06:46:22.743Z,-0.42
2018-02-20T06:47:22.666Z,-0.34
2018-02-20T06:48:22.573Z,-0.34
2018-02-20T06:49:22.494Z,-0.34
2018-02-20T06:50:22.425Z,-0.34
2018-02-20T06:51:22.329Z,-0.32
2018-02-20T06:52:22.252Z,-0.21
2018-02-20T06:55:04.126Z,-0.32
2018-02-20T06:56:04.057Z,-0.34
2018-02-20T06:57:03.978Z,-0.39
2018-02-20T06:58:03.881Z,-0.30
2018-02-20T06:59:03.806Z,-0.38
2018-02-20T07:00:03.716Z,-0.34
2018-02-20T07:01:03.644Z,-0.30
2018-02-20T07:02:03.568Z,-0.26
2018-02-20T07:03:03.458Z,-0.24
2018-02-20T07:04:03.379Z,-0.27
2018-02-20T07:05:04.202Z,-0.26
2018-02-20T07:06:03.202Z,-0.21
2018-02-20T07:07:03.141Z,-0.20
2018-02-20T07:08:03.095Z,-0.20
2018-02-20T07:09:02.947Z,-0.23
2018-02-20T07:10:02.868Z,-0.24
2018-02-20T07:11:02.804Z,-0.31
2018-02-20T07:12:02.723Z,-0.24
2018-02-20T07:13:02.608Z,-0.17
2018-02-20T07:14:02.530Z,-0.26
2018-02-20T07:15:02.440Z,-0.09
2018-02-20T07:16:02.357Z,-0.13
2018-02-20T07:17:02.306Z,-0.12
2018-02-20T07:18:02.219Z,-0.21
2018-02-20T07:19:02.116Z,-0.03
2018-02-20T07:20:02.025Z,0.02
2018-02-20T07:21:01.928Z,-0.02
2018-02-20T07:22:01.903Z,0.02
2018-02-20T07:23:01.755Z,0.05
2018-02-20T07:24:01.702Z,-0.01
2018-02-20T07:25:01.598Z,0.12
2018-02-20T07:26:01.531Z,0.04
2018-02-20T07:27:01.428Z,0.17
2018-02-20T07:28:01.417Z,0.22
2018-02-20T07:29:01.249Z,0.25
2018-02-20T07:30:01.195Z,0.31
2018-02-20T07:31:01.082Z,0.40
2018-02-20T07:32:01.008Z,0.43
2018-02-20T07:33:00.916Z,0.67
2018-02-20T07:34:00.837Z,0.86
2018-02-20T07:35:00.847Z,1.02
2018-02-20T07:36:00.692Z,1.14
2018-02-20T07:37:00.602Z,1.31
2018-02-20T07:38:00.607Z,1.44
2018-02-20T07:39:00.410Z,1.26
2018-02-20T07:40:00.371Z,1.21
2018-02-20T07:41:00.246Z,1.24
2018-02-20T07:42:00.162Z,1.31
2018-02-20T07:43:00.091Z,1.25
2018-02-20T07:44:00.007Z,1.32
2018-02-20T07:44:59.922Z,1.28
2018-02-20T07:45:59.838Z,1.29
2018-02-20T07:46:59.744Z,1.43
2018-02-20T07:47:59.705Z,1.39
2018-02-20T07:48:59.566Z,1.46
2018-02-20T07:49:59.516Z,1.29
2018-02-20T07:50:59.413Z,1.32
2018-02-20T07:51:59.341Z,1.31
2018-02-20T07:52:59.232Z,1.44
2018-02-20T07:53:59.180Z,1.39
2018-02-20T07:54:59.077Z,1.38
2018-02-20T07:55:59.037Z,1.31
2018-02-20T07:56:58.908Z,1.35
2018-02-20T07:57:58.824Z,1.32
2018-02-20T07:58:58.729Z,1.43
2018-02-20T07:59:58.681Z,1.42
2018-02-20T08:00:58.576Z,1.46
2018-02-20T08:01:58.516Z,1.57
2018-02-20T08:02:58.412Z,2.00
2018-02-20T08:03:58.327Z,2.55
2018-02-20T08:04:58.228Z,3.02
2018-02-20T08:05:58.171Z,3.54
2018-02-20T08:06:58.067Z,3.70
2018-02-20T08:07:57.990Z,3.80
2018-02-20T08:08:57.897Z,4.28
2018-02-20T08:09:57.852Z,4.61
2018-02-20T08:10:57.763Z,4.99
2018-02-20T08:11:57.718Z,5.60
2018-02-20T08:12:57.562Z,5.85
2018-02-20T08:13:57.491Z,5.45
2018-02-20T08:14:57.528Z,5.40
2018-02-20T08:15:57.345Z,5.30
2018-02-20T08:16:57.276Z,5.44
2018-02-20T08:17:57.159Z,5.49
2018-02-20T08:18:57.073Z,5.56
2018-02-20T08:19:56.997Z,5.65
2018-02-20T08:20:56.931Z,5.67
2018-02-20T08:21:56.840Z,5.60
2018-02-20T08:22:56.761Z,5.44
2018-02-20T08:23:56.668Z,5.66
2018-02-20T08:24:56.603Z,5.51
2018-02-20T08:25:56.533Z,5.51
2018-02-20T08:26:56.418Z,5.69
2018-02-20T08:27:56.470Z,5.65
2018-02-20T08:28:56.255Z,5.73
2018-02-20T08:29:56.205Z,6.02
2018-02-20T08:30:56.113Z,5.83
2018-02-20T08:31:56.014Z,6.16
2018-02-20T08:32:55.925Z,6.39
2018-02-20T08:33:55.855Z,6.79
2018-02-20T08:34:55.780Z,7.04
2018-02-20T08:35:55.711Z,7.32
2018-02-20T08:36:55.616Z,7.79
2018-02-20T08:37:55.557Z,7.77
2018-02-20T08:38:55.442Z,7.84
2018-02-20T08:39:55.379Z,8.18
2018-02-20T08:40:55.281Z,8.45
2018-02-20T08:41:55.208Z,8.40
2018-02-20T08:42:55.157Z,8.27
2018-02-20T08:43:55.050Z,8.50
2018-02-20T08:44:54.963Z,7.94
2018-02-20T08:45:54.890Z,7.71
2018-02-20T08:46:54.800Z,7.51
2018-02-20T08:47:54.749Z,8.18
2018-02-20T08:48:54.654Z,8.57
2018-02-20T08:49:54.567Z,7.99
2018-02-20T08:50:54.479Z,8.00
2018-02-20T08:51:54.409Z,7.94
2018-02-20T08:52:54.322Z,7.79
2018-02-20T08:53:54.264Z,8.37
2018-02-20T08:54:54.164Z,8.47
2018-02-20T08:55:54.100Z,8.20
2018-02-20T08:56:53.992Z,8.06
2018-02-20T08:57:53.932Z,7.94
2018-02-20T08:58:53.903Z,8.58
2018-02-20T08:59:53.765Z,8.91
2018-02-20T09:00:53.676Z,9.34
2018-02-20T09:01:53.617Z,9.26
2018-02-20T09:02:53.535Z,9.12
2018-02-20T09:03:53.580Z,8.73
2018-02-20T09:04:53.391Z,8.76
2018-02-20T09:05:53.458Z,9.13
2018-02-20T09:06:53.207Z,9.32
2018-02-20T09:07:53.202Z,8.49
2018-02-20T09:08:53.082Z,8.96
2018-02-20T09:09:53.040Z,9.59
2018-02-20T09:10:52.899Z,9.58
2018-02-20T09:11:52.919Z,9.59
2018-02-20T09:12:52.736Z,9.89
2018-02-20T09:13:52.724Z,10.25
2018-02-20T09:14:52.596Z,10.73
2018-02-20T09:15:52.530Z,10.73
2018-02-20T09:16:52.421Z,9.92
2018-02-20T09:17:52.446Z,10.14
2018-02-20T09:18:52.265Z,10.26
2018-02-20T09:19:52.303Z,9.73
2018-02-20T09:20:52.099Z,9.23
2018-02-20T09:21:52.108Z,8.94
2018-02-20T09:22:51.942Z,8.89
2018-02-20T09:23:51.982Z,9.23
2018-02-20T09:24:51.808Z,9.65
2018-02-20T09:25:51.786Z,8.60
2018-02-20T09:26:51.711Z,8.17
2018-02-20T09:27:51.618Z,8.73
2018-02-20T09:28:51.482Z,9.26
2018-02-20T09:29:52.231Z,9.44
2018-02-20T09:30:51.313Z,9.71
2018-02-20T09:31:51.405Z,9.99
2018-02-20T09:32:51.160Z,9.13
2018-02-20T09:33:51.104Z,8.64
2018-02-20T09:34:51.038Z,8.42
2018-02-20T09:35:51.034Z,8.60
2018-02-20T09:36:50.843Z,8.88
2018-02-20T09:37:50.856Z,9.55
2018-02-20T09:38:50.689Z,9.92
2018-02-20T09:39:50.675Z,10.26
2018-02-20T09:40:50.556Z,10.47
2018-02-20T09:41:50.471Z,10.26
2018-02-20T09:42:50.371Z,10.93
2018-02-20T09:43:50.365Z,11.44
2018-02-20T09:44:50.221Z,11.21
2018-02-20T09:45:50.206Z,10.95
2018-02-20T09:46:50.076Z,10.52
2018-02-20T09:47:50.076Z,10.58
2018-02-20T09:48:49.908Z,11.01
2018-02-20T09:49:49.908Z,11.12
2018-02-20T09:50:49.770Z,10.90
2018-02-20T09:51:49.820Z,11.13
2018-02-20T09:52:49.593Z,11.35
2018-02-20T09:53:49.611Z,11.38
2018-02-20T09:54:49.454Z,11.19
2018-02-20T09:55:49.447Z,11.51
2018-02-20T09:56:49.311Z,11.24
2018-02-20T09:57:49.327Z,11.12
2018-02-20T09:58:49.125Z,10.94
2018-02-20T09:59:49.135Z,11.06
2018-02-20T10:00:48.975Z,11.38
2018-02-20T10:01:48.973Z,11.06
2018-02-20T10:02:48.878Z,11.12
2018-02-20T10:03:48.868Z,11.26
2018-02-20T10:04:48.673Z,11.36
2018-02-20T10:05:49.237Z,11.87
2018-02-20T10:06:48.537Z,11.51
2018-02-20T10:07:48.482Z,10.99
2018-02-20T10:08:48.367Z,11.01
2018-02-20T10:11:30.695Z,11.28
2018-02-20T10:12:30.728Z,11.36
2018-02-20T10:13:30.503Z,10.98
2018-02-20T10:14:30.596Z,11.28
2018-02-20T10:15:30.355Z,11.85
2018-02-20T10:16:30.421Z,12.23
2018-02-20T10:17:30.230Z,12.43
2018-02-20T10:18:30.211Z,12.59
2018-02-20T10:19:30.041Z,12.49
2018-02-20T10:20:30.029Z,12.26
2018-02-20T10:21:29.894Z,12.01
2018-02-20T10:22:29.873Z,11.79
2018-02-20T10:23:29.761Z,12.11
2018-02-20T10:24:29.754Z,12.04
2018-02-20T10:25:29.590Z,11.84
2018-02-20T10:26:29.561Z,11.79
2018-02-20T10:27:29.432Z,11.39
2018-02-20T10:28:29.496Z,11.16
2018-02-20T10:29:29.283Z,11.38
2018-02-20T10:30:29.693Z,11.82
2018-02-20T10:31:29.145Z,11.39
2018-02-20T10:34:11.181Z,11.26
2018-02-20T10:35:11.184Z,11.01
2018-02-20T10:36:11.019Z,11.24
2018-02-20T10:37:10.997Z,11.33
2018-02-20T10:38:10.868Z,11.64
2018-02-20T10:39:10.924Z,12.18
2018-02-20T10:40:10.732Z,12.22
2018-02-20T10:41:10.718Z,12.33
2018-02-20T10:42:10.559Z,11.87
2018-02-20T10:43:10.521Z,11.63
2018-02-20T10:44:10.432Z,11.57
2018-02-20T10:45:10.425Z,11.79
2018-02-20T10:46:10.261Z,12.19
2018-02-20T10:47:10.235Z,12.49
2018-02-20T10:48:10.172Z,12.11
2018-02-20T10:49:10.083Z,12.05
2018-02-20T10:50:09.946Z,12.07
2018-02-20T10:51:09.990Z,12.88
2018-02-20T10:52:09.811Z,13.36
2018-02-20T10:53:09.758Z,13.16
2018-02-20T10:54:09.671Z,13.62
2018-02-20T10:55:09.669Z,12.69
2018-02-20T10:56:09.493Z,12.99
2018-02-20T10:57:09.483Z,13.19
2018-02-20T10:58:09.350Z,12.16
2018-02-20T10:59:09.477Z,11.57
2018-02-20T11:00:09.220Z,11.31
2018-02-20T11:01:09.209Z,11.63
2018-02-20T11:02:09.040Z,12.59
2018-02-20T11:03:09.004Z,13.10
2018-02-20T11:04:08.930Z,13.28
2018-02-20T11:05:08.972Z,13.09
2018-02-20T11:06:08.740Z,12.77
2018-02-20T11:07:08.800Z,12.33
2018-02-20T11:08:08.577Z,12.00
2018-02-20T11:09:08.648Z,11.82
2018-02-20T11:10:08.460Z,11.64
2018-02-20T11:11:08.454Z,11.69
2018-02-20T11:12:08.292Z,11.12
2018-02-20T11:13:08.267Z,11.16
2018-02-20T11:14:08.132Z,11.66
2018-02-20T11:15:08.167Z,11.72
2018-02-20T11:16:08.014Z,11.77
2018-02-20T11:17:07.975Z,11.38
2018-02-20T11:18:07.827Z,11.66
2018-02-20T11:19:07.780Z,12.15
2018-02-20T11:20:07.674Z,12.30
2018-02-20T11:21:07.736Z,12.80
2018-02-20T11:22:07.543Z,12.87
2018-02-20T11:23:07.501Z,12.38
2018-02-20T11:24:07.380Z,12.59
2018-02-20T11:25:07.424Z,12.54
2018-02-20T11:26:07.244Z,13.01
2018-02-20T11:27:07.218Z,13.06
2018-02-20T11:28:07.081Z,12.11
2018-02-20T11:29:07.031Z,11.72
2018-02-20T11:30:07.023Z,12.07
2018-02-20T11:31:06.995Z,11.51
2018-02-20T11:32:06.766Z,11.21
2018-02-20T11:33:06.861Z,11.31
2018-02-20T11:34:06.617Z,11.12
2018-02-20T11:35:06.667Z,10.90
2018-02-20T11:36:06.609Z,11.36
2018-02-20T11:37:06.469Z,11.51
2018-02-20T11:38:06.321Z,10.84
2018-02-20T11:39:06.289Z,10.73
2018-02-20T11:40:06.174Z,10.95
2018-02-20T11:41:06.215Z,11.01
2018-02-20T11:42:06.005Z,10.90
2018-02-20T11:43:06.000Z,10.90
2018-02-20T11:44:05.869Z,11.54
2018-02-20T11:45:05.906Z,11.81
2018-02-20T11:46:05.733Z,11.64
2018-02-20T11:47:05.717Z,11.35
2018-02-20T11:48:05.545Z,11.30
2018-02-20T11:49:05.575Z,11.30
2018-02-20T11:50:05.634Z,11.13
2018-02-20T11:51:05.598Z,10.31
2018-02-20T11:52:05.272Z,9.83
2018-02-20T11:53:05.242Z,9.60
2018-02-20T11:54:05.113Z,10.14
2018-02-20T11:55:05.056Z,10.83
2018-02-20T11:56:04.936Z,11.23
2018-02-20T11:57:05.219Z,11.19
2018-02-20T11:58:04.817Z,10.84
2018-02-20T11:59:04.768Z,11.38
2018-02-20T12:00:04.633Z,11.69
2018-02-20T12:01:04.615Z,11.17
2018-02-20T12:02:04.506Z,11.90
2018-02-20T12:03:04.579Z,12.11
2018-02-20T12:04:04.339Z,11.97
2018-02-20T12:05:04.298Z,11.79
2018-02-20T12:06:04.188Z,12.19
2018-02-20T12:07:04.249Z,12.29
2018-02-20T12:08:04.032Z,12.21
2018-02-20T12:09:04.054Z,12.33
2018-02-20T12:10:03.870Z,12.67
2018-02-20T12:11:03.858Z,12.80
2018-02-20T12:12:03.782Z,13.21
2018-02-20T12:13:03.745Z,13.32
2018-02-20T12:14:03.589Z,14.02
2018-02-20T12:16:45.710Z,13.09
2018-02-20T12:17:45.759Z,12.44
2018-02-20T12:18:45.581Z,11.27
2018-02-20T12:19:45.551Z,10.94
2018-02-20T12:20:45.406Z,10.73
2018-02-20T12:21:45.554Z,10.87
2018-02-20T12:22:45.391Z,10.26
2018-02-20T12:23:45.407Z,9.83
2018-02-20T12:24:45.297Z,9.53
2018-02-20T12:25:45.224Z,9.60
2018-02-20T12:26:45.203Z,9.89
2018-02-20T12:27:45.293Z,10.14
2018-02-20T12:28:45.057Z,10.31
2018-02-20T12:29:44.987Z,10.42
2018-02-20T12:30:44.824Z,9.83
2018-02-20T12:31:44.825Z,10.07
2018-02-20T12:32:44.611Z,9.86
2018-02-20T12:33:44.744Z,9.68
2018-02-20T12:34:44.410Z,9.59
2018-02-20T12:35:44.543Z,9.44
2018-02-20T12:36:44.344Z,9.12
2018-02-20T12:37:44.426Z,8.61
2018-02-20T12:38:44.151Z,8.75
2018-02-20T12:39:44.136Z,8.60
2018-02-20T12:40:44.013Z,8.54
2018-02-20T12:41:44.028Z,8.39
2018-02-20T12:42:43.846Z,8.47
2018-02-20T12:43:44.005Z,8.55
2018-02-20T12:44:43.731Z,8.63
2018-02-20T12:47:37.348Z,8.64
2018-02-20T12:48:37.507Z,8.79
2018-02-20T12:49:37.209Z,8.79
2018-02-20T12:50:37.270Z,8.93
2018-02-20T12:51:36.998Z,8.76
2018-02-20T12:52:37.021Z,8.54
2018-02-20T12:53:36.873Z,8.34
2018-02-20T12:54:36.947Z,8.42
2018-02-20T12:55:36.749Z,8.52
2018-02-20T12:56:36.670Z,8.68
2018-02-20T12:57:36.630Z,8.83
2018-02-20T12:58:36.595Z,8.94
2018-02-20T12:59:36.425Z,8.86
2018-02-20T13:00:36.497Z,8.58
2018-02-20T13:01:36.236Z,8.54
2018-02-20T13:02:36.491Z,8.55
2018-02-20T13:03:36.135Z,8.46
2018-02-20T13:04:36.143Z,8.46
2018-02-20T13:05:35.913Z,8.52
2018-02-20T13:08:18.031Z,8.43
2018-02-20T13:09:17.930Z,8.43
2018-02-20T13:10:17.629Z,8.52
2018-02-20T13:12:59.819Z,8.17
2018-02-20T13:13:59.837Z,8.46
2018-02-20T13:14:59.701Z,8.64
2018-02-20T13:15:59.655Z,8.65
2018-02-20T13:16:59.521Z,8.71
2018-02-20T13:17:59.549Z,8.76
2018-02-20T13:18:59.447Z,8.85
2018-02-20T13:19:59.482Z,8.71